createdAt,value
2023-02-21T00:02:06.267Z,65.57
2023-02-21T00:05:07.980Z,66.07
2023-02-21T00:08:08.636Z,65.99
2023-02-21T00:11:09.150Z,66.33
2023-02-21T00:14:09.394Z,66.13
2023-02-21T00:17:09.910Z,66.43
2023-02-21T00:20:11.445Z,66.37
2023-02-21T00:23:11.767Z,66.45
2023-02-21T00:26:12.217Z,66.23
2023-02-21T00:29:12.554Z,66.29
2023-02-21T00:32:13.374Z,66.74
2023-02-21T00:35:15.166Z,66.76
2023-02-21T00:38:15.469Z,66.91
2023-02-21T00:41:16.262Z,67.06
2023-02-21T00:44:16.638Z,67.35
2023-02-21T00:47:16.852Z,67.45
2023-02-21T00:50:18.492Z,67.48
2023-02-21T00:53:18.633Z,67.32
2023-02-21T00:56:19.150Z,67.41
2023-02-21T00:59:19.355Z,67.55
2023-02-21T01:02:19.689Z,67.58
2023-02-21T01:05:22.018Z,67.99
2023-02-21T01:08:22.752Z,68.17
2023-02-21T01:11:23.130Z,68.10
2023-02-21T01:14:24.734Z,67.95
2023-02-21T01:17:26.189Z,68.00
2023-02-21T01:20:28.749Z,68.25
2023-02-21T01:23:29.406Z,68.01
2023-02-21T01:26:29.487Z,68.13
2023-02-21T01:29:31.695Z,68.54
2023-02-21T01:32:33.901Z,68.64
2023-02-21T01:35:35.564Z,68.88
2023-02-21T01:38:35.719Z,69.23
2023-02-21T01:41:36.146Z,69.31
2023-02-21T01:44:54.470Z,69.30
2023-02-21T01:47:54.805Z,69.28
2023-02-21T01:50:56.417Z,69.51
2023-02-21T01:53:56.691Z,69.68
2023-02-21T01:56:58.335Z,70.29
2023-02-21T01:59:59.621Z,70.13
2023-02-21T02:03:08.842Z,70.14
2023-02-21T02:06:14.404Z,70.42
2023-02-21T02:09:14.482Z,70.41
2023-02-21T02:12:25.402Z,70.91
2023-02-21T02:15:33.841Z,70.63
2023-02-21T02:18:30.578Z,70.50
2023-02-21T02:22:02.217Z,70.78
2023-02-21T02:25:01.506Z,70.86
2023-02-21T02:28:18.762Z,70.92
2023-02-21T02:31:25.400Z,70.64
2023-02-21T02:34:42.347Z,70.66
2023-02-21T02:37:32.858Z,70.61
2023-02-21T02:40:23.798Z,70.90
2023-02-21T02:43:17.041Z,70.61
2023-02-21T02:46:06.429Z,70.90
2023-02-21T02:48:55.106Z,71.10
2023-02-21T02:51:39.575Z,71.35
2023-02-21T02:54:25.032Z,71.85
2023-02-21T02:57:13.019Z,72.04
2023-02-21T02:59:56.466Z,72.61
2023-02-21T03:02:51.533Z,72.77
2023-02-21T03:05:42.660Z,72.40
2023-02-21T03:08:37.849Z,72.67
2023-02-21T03:11:24.925Z,72.50
2023-02-21T03:14:14.471Z,72.95
2023-02-21T03:17:02.775Z,72.97
2023-02-21T03:19:48.970Z,72.95
2023-02-21T03:22:33.258Z,72.79
2023-02-21T03:25:18.437Z,73.08
2023-02-21T03:28:03.071Z,72.59
2023-02-21T03:30:56.411Z,73.02
2023-02-21T03:33:41.338Z,72.92
2023-02-21T03:36:25.225Z,72.81
2023-02-21T03:39:09.018Z,72.75
2023-02-21T03:41:53.543Z,72.88
2023-02-21T03:44:36.469Z,72.85
2023-02-21T03:47:19.463Z,72.72
2023-02-21T03:50:02.424Z,72.69
2023-02-21T03:52:45.405Z,73.60
2023-02-21T03:55:28.877Z,73.25
2023-02-21T03:58:14.746Z,73.37
2023-02-21T04:00:59.034Z,73.27
2023-02-21T04:03:41.855Z,73.56
2023-02-21T04:06:24.738Z,73.41
2023-02-21T04:09:07.575Z,73.80
2023-02-21T04:11:52.431Z,74.23
2023-02-21T04:14:36.697Z,74.34
2023-02-21T04:17:19.877Z,74.72
2023-02-21T04:20:03.787Z,74.26
2023-02-21T04:23:02.701Z,74.09
2023-02-21T04:25:46.461Z,73.96
2023-02-21T04:28:34.177Z,74.10
2023-02-21T04:31:19.776Z,73.99
2023-02-21T04:34:11.813Z,74.27
2023-02-21T04:36:58.140Z,74.33
2023-02-21T04:39:42.038Z,74.43
2023-02-21T04:42:24.916Z,74.33
2023-02-21T04:45:09.220Z,74.27
2023-02-21T04:47:54.079Z,74.29
2023-02-21T04:50:36.895Z,74.34
2023-02-21T04:53:19.867Z,74.46
2023-02-21T04:56:02.625Z,74.72
2023-02-21T04:58:46.150Z,74.87
2023-02-21T05:01:31.295Z,74.63
2023-02-21T05:04:15.696Z,74.59
2023-02-21T05:06:59.857Z,74.67
2023-02-21T05:09:42.644Z,74.65
2023-02-21T05:12:25.469Z,75.10
2023-02-21T05:15:09.467Z,75.19
2023-02-21T05:17:52.296Z,75.06
2023-02-21T05:20:36.380Z,74.99
2023-02-21T05:23:34.019Z,75.07
2023-02-21T05:26:16.996Z,74.93
2023-02-21T05:29:00.031Z,74.76
2023-02-21T05:31:42.796Z,74.85
2023-02-21T05:34:25.654Z,74.68
2023-02-21T05:37:09.768Z,74.68
2023-02-21T05:39:52.901Z,74.73
2023-02-21T05:42:35.698Z,74.59
2023-02-21T05:45:19.697Z,74.73
2023-02-21T05:48:02.596Z,74.56
2023-02-21T05:50:45.832Z,74.68
2023-02-21T05:53:29.984Z,74.80
2023-02-21T05:56:13.732Z,74.70
2023-02-21T05:58:56.529Z,74.69
2023-02-21T06:01:39.889Z,74.88
2023-02-21T06:04:22.685Z,75.01
2023-02-21T06:07:05.455Z,75.00
2023-02-21T06:09:49.691Z,75.43
2023-02-21T06:12:32.720Z,75.64
2023-02-21T06:15:15.522Z,76.02
2023-02-21T06:17:58.297Z,75.90
2023-02-21T06:20:41.159Z,75.73
2023-02-21T06:23:23.928Z,75.64
2023-02-21T06:26:08.139Z,75.69
2023-02-21T06:28:51.350Z,75.71
2023-02-21T06:31:36.345Z,75.87
2023-02-21T06:34:19.207Z,75.63
2023-02-21T06:37:02.120Z,75.92
2023-02-21T06:39:44.956Z,76.17
2023-02-21T06:42:30.036Z,75.92
2023-02-21T06:45:12.953Z,75.87
2023-02-21T06:47:55.703Z,76.23
2023-02-21T06:50:38.477Z,76.10
2023-02-21T06:53:21.255Z,76.20
2023-02-21T06:56:05.644Z,76.26
2023-02-21T06:58:49.768Z,75.93
2023-02-21T07:01:32.765Z,76.05
2023-02-21T07:04:15.607Z,75.88
2023-02-21T07:06:58.409Z,75.90
2023-02-21T07:09:41.236Z,75.96
2023-02-21T07:12:23.989Z,75.93
2023-02-21T07:15:09.077Z,75.95
2023-02-21T07:17:51.896Z,76.03
2023-02-21T07:20:35.375Z,75.88
2023-02-21T07:23:18.360Z,75.82
2023-02-21T07:26:01.174Z,75.51
2023-02-21T07:28:44.169Z,75.44
2023-02-21T07:31:28.397Z,75.70
2023-02-21T07:34:12.221Z,75.71
2023-02-21T07:36:55.068Z,75.66
2023-02-21T07:39:38.192Z,75.73
2023-02-21T07:42:21.069Z,76.25
2023-02-21T07:45:04.123Z,75.95
2023-02-21T07:47:50.959Z,75.95
2023-02-21T07:50:33.790Z,76.02
2023-02-21T07:53:17.810Z,76.06
2023-02-21T07:56:00.781Z,76.31
2023-02-21T07:58:43.588Z,76.22
2023-02-21T08:01:27.801Z,76.33
2023-02-21T08:04:13.243Z,76.33
2023-02-21T08:07:00.642Z,76.46
2023-02-21T08:09:43.435Z,76.53
2023-02-21T08:12:26.247Z,76.53
2023-02-21T08:15:09.875Z,76.52
2023-02-21T08:17:53.032Z,76.56
2023-02-21T08:20:37.175Z,76.71
2023-02-21T08:23:20.161Z,76.72
2023-02-21T08:26:04.530Z,76.79
2023-02-21T08:28:47.334Z,77.16
2023-02-21T08:31:30.244Z,77.26
2023-02-21T08:34:13.795Z,77.40
2023-02-21T08:36:58.235Z,77.20
2023-02-21T08:39:41.084Z,77.24
2023-02-21T08:42:23.910Z,77.49
2023-02-21T08:45:07.458Z,77.76
2023-02-21T08:47:51.447Z,78.27
2023-02-21T08:50:34.554Z,77.87
2023-02-21T08:53:18.919Z,77.52
2023-02-21T08:56:01.751Z,77.25
2023-02-21T08:58:44.547Z,77.12
2023-02-21T09:01:33.289Z,76.79
2023-02-21T09:04:16.105Z,76.51
2023-02-21T09:06:58.911Z,76.44
2023-02-21T09:09:43.119Z,76.28
2023-02-21T09:12:25.929Z,75.47
2023-02-21T09:15:09.506Z,75.55
2023-02-21T09:17:54.551Z,75.52
2023-02-21T09:20:41.609Z,75.59
2023-02-21T09:23:25.386Z,75.17
2023-02-21T09:26:09.564Z,74.96
2023-02-21T09:28:53.470Z,75.34
2023-02-21T09:31:36.343Z,74.90
2023-02-21T09:34:19.306Z,73.82
2023-02-21T09:37:05.911Z,72.22
2023-02-21T09:39:48.734Z,72.70
2023-02-21T09:42:33.555Z,71.97
2023-02-21T09:45:17.285Z,71.77
2023-02-21T09:48:03.946Z,71.57
2023-02-21T09:50:50.043Z,71.49
2023-02-21T09:53:35.922Z,70.99
2023-02-21T09:56:27.914Z,71.44
2023-02-21T09:59:14.085Z,71.18
2023-02-21T10:02:18.781Z,70.92
2023-02-21T10:05:11.150Z,70.76
2023-02-21T10:08:02.463Z,70.73
2023-02-21T10:10:47.938Z,70.47
2023-02-21T10:13:40.568Z,70.43
2023-02-21T10:16:29.860Z,70.36
2023-02-21T10:19:19.698Z,69.93
2023-02-21T10:22:12.052Z,69.53
2023-02-21T10:24:55.294Z,68.65
2023-02-21T10:27:38.125Z,68.60
2023-02-21T10:30:29.207Z,68.65
2023-02-21T10:33:13.816Z,68.68
2023-02-21T10:35:56.755Z,68.47
2023-02-21T10:38:42.103Z,68.18
2023-02-21T10:41:31.135Z,68.00
2023-02-21T10:44:18.940Z,68.11
2023-02-21T10:47:05.517Z,68.27
2023-02-21T10:49:55.194Z,67.92
2023-02-21T10:52:39.485Z,67.75
2023-02-21T10:55:32.644Z,67.59
2023-02-21T10:58:28.677Z,67.38
2023-02-21T11:01:15.963Z,67.31
2023-02-21T11:04:02.102Z,67.14
2023-02-21T11:06:48.674Z,67.50
2023-02-21T11:09:36.645Z,67.49
2023-02-21T11:12:24.332Z,67.24
2023-02-21T11:15:18.486Z,67.00
2023-02-21T11:18:07.714Z,67.21
2023-02-21T11:20:50.508Z,67.36
2023-02-21T11:23:34.698Z,67.25
2023-02-21T11:26:17.645Z,67.39
2023-02-21T11:29:11.552Z,67.08
2023-02-21T11:31:55.121Z,67.07
2023-02-21T11:34:38.008Z,66.81
2023-02-21T11:37:20.841Z,66.90
2023-02-21T11:40:08.680Z,66.96
2023-02-21T11:42:51.830Z,67.08
2023-02-21T11:45:37.901Z,66.80
2023-02-21T11:48:31.318Z,66.66
2023-02-21T11:51:23.806Z,66.50
2023-02-21T11:54:07.707Z,66.45
2023-02-21T11:56:56.260Z,66.23
2023-02-21T11:59:47.566Z,66.62
2023-02-21T12:03:08.725Z,66.73
2023-02-21T12:05:58.830Z,67.05
2023-02-21T12:08:48.787Z,67.09
2023-02-21T12:12:02.249Z,67.03
2023-02-21T12:14:57.551Z,66.83
2023-02-21T12:17:53.163Z,66.67
2023-02-21T12:21:02.147Z,66.39
2023-02-21T12:23:55.641Z,66.17
2023-02-21T12:26:52.645Z,66.19
2023-02-21T12:29:53.741Z,66.27
2023-02-21T12:32:50.077Z,66.27
2023-02-21T12:36:02.633Z,66.23
2023-02-21T12:38:57.121Z,66.27
2023-02-21T12:41:50.905Z,66.53
2023-02-21T12:44:43.251Z,66.42
2023-02-21T12:47:33.580Z,66.48
2023-02-21T12:50:22.567Z,66.38
2023-02-21T12:53:17.146Z,66.43
2023-02-21T12:56:06.923Z,66.31
2023-02-21T12:58:53.931Z,65.97
2023-02-21T13:01:42.554Z,66.12
2023-02-21T13:04:37.257Z,66.15
2023-02-21T13:07:26.414Z,66.14
2023-02-21T13:10:18.013Z,65.73
2023-02-21T13:13:05.554Z,66.03
2023-02-21T13:15:50.267Z,66.24
2023-02-21T13:18:34.344Z,65.61
2023-02-21T13:21:31.251Z,65.81
2023-02-21T13:24:42.223Z,65.95
2023-02-21T13:27:57.470Z,65.66
2023-02-21T13:30:46.568Z,65.95
2023-02-21T13:33:38.458Z,66.06
2023-02-21T13:36:27.141Z,65.96
2023-02-21T13:39:14.828Z,65.98
2023-02-21T13:42:05.538Z,65.80
2023-02-21T13:44:54.203Z,65.18
2023-02-21T13:48:18.687Z,65.22
2023-02-21T13:51:02.005Z,65.08
2023-02-21T13:54:10.178Z,65.23
2023-02-21T13:56:53.265Z,65.11
2023-02-21T13:59:37.562Z,65.07
2023-02-21T14:02:31.150Z,65.36
2023-02-21T14:05:14.120Z,65.43
2023-02-21T14:08:03.291Z,65.39
2023-02-21T14:10:50.610Z,65.18
2023-02-21T14:13:54.405Z,64.95
2023-02-21T14:17:06.056Z,64.76
2023-02-21T14:19:54.758Z,65.04
2023-02-21T14:22:39.787Z,64.83
2023-02-21T14:25:25.579Z,65.02
2023-02-21T14:28:41.470Z,64.84
2023-02-21T14:31:58.966Z,63.18
2023-02-21T14:34:54.203Z,64.31
2023-02-21T14:37:40.026Z,63.95
2023-02-21T14:40:32.789Z,63.88
2023-02-21T14:43:43.851Z,63.20
2023-02-21T14:46:54.913Z,63.09
2023-02-21T14:50:06.216Z,62.46
2023-02-21T14:53:19.475Z,63.03
2023-02-21T14:56:22.197Z,62.54
2023-02-21T14:59:52.719Z,62.16
2023-02-21T15:02:43.556Z,62.60
2023-02-21T15:05:31.488Z,62.78
2023-02-21T15:08:18.296Z,63.09
2023-02-21T15:11:05.615Z,62.91
2023-02-21T15:13:48.513Z,62.66
2023-02-21T15:16:33.087Z,62.97
2023-02-21T15:19:31.845Z,62.67
2023-02-21T15:22:25.049Z,62.41
2023-02-21T15:25:25.145Z,62.47
2023-02-21T15:28:21.970Z,63.15
2023-02-21T15:31:07.994Z,63.34
2023-02-21T15:33:53.493Z,63.18
2023-02-21T15:36:36.401Z,63.12
2023-02-21T15:39:25.417Z,63.35
2023-02-21T15:42:11.683Z,63.75
2023-02-21T15:45:00.621Z,63.87
2023-02-21T15:47:44.495Z,63.96
2023-02-21T15:50:34.135Z,64.12
2023-02-21T15:53:19.673Z,64.25
2023-02-21T15:56:24.553Z,64.24
2023-02-21T15:59:13.530Z,64.37
2023-02-21T16:02:15.113Z,64.51
2023-02-21T16:04:57.957Z,64.57
2023-02-21T16:07:41.174Z,64.83
2023-02-21T16:10:26.043Z,64.87
2023-02-21T16:13:11.027Z,64.99
2023-02-21T16:15:53.985Z,65.15
2023-02-21T16:18:36.932Z,65.10
2023-02-21T16:21:24.155Z,65.27
2023-02-21T16:24:30.183Z,65.29
2023-02-21T16:27:16.182Z,65.44
2023-02-21T16:30:01.426Z,65.45
2023-02-21T16:32:47.499Z,65.50
2023-02-21T16:35:30.960Z,65.61
2023-02-21T16:38:16.580Z,65.72
2023-02-21T16:40:59.356Z,65.89
2023-02-21T16:43:42.253Z,66.21
2023-02-21T16:46:30.095Z,66.31
2023-02-21T16:49:13.591Z,66.26
2023-02-21T16:51:56.410Z,66.38
2023-02-21T16:54:39.204Z,66.01
2023-02-21T16:57:22.108Z,66.20
2023-02-21T17:00:05.836Z,66.57
2023-02-21T17:02:50.939Z,66.77
2023-02-21T17:05:35.990Z,66.86
2023-02-21T17:08:18.920Z,67.18
2023-02-21T17:11:01.787Z,67.16
2023-02-21T17:13:44.618Z,67.40
2023-02-21T17:16:27.496Z,67.18
2023-02-21T17:19:12.891Z,67.37
2023-02-21T17:21:58.127Z,67.53
2023-02-21T17:24:41.027Z,67.84
2023-02-21T17:27:23.861Z,67.97
2023-02-21T17:30:07.854Z,68.23
2023-02-21T17:32:51.173Z,68.42
2023-02-21T17:35:35.331Z,68.47
2023-02-21T17:38:18.165Z,68.80
2023-02-21T17:41:00.938Z,68.66
2023-02-21T17:43:43.896Z,69.01
2023-02-21T17:46:26.899Z,69.21
2023-02-21T17:49:09.836Z,69.47
2023-02-21T17:51:54.898Z,69.68
2023-02-21T17:54:37.842Z,69.63
2023-02-21T17:57:20.783Z,69.95
2023-02-21T18:00:04.321Z,70.09
2023-02-21T18:02:47.760Z,70.16
2023-02-21T18:05:31.531Z,70.18
2023-02-21T18:08:16.729Z,70.19
2023-02-21T18:10:59.514Z,70.80
2023-02-21T18:13:42.573Z,71.89
2023-02-21T18:16:25.659Z,71.99
2023-02-21T18:19:08.537Z,71.51
2023-02-21T18:21:51.329Z,71.48
2023-02-21T18:24:35.459Z,71.52
2023-02-21T18:27:18.255Z,71.53
2023-02-21T18:30:01.144Z,71.64
2023-02-21T18:32:44.029Z,71.67
2023-02-21T18:35:26.858Z,71.71
2023-02-21T18:38:09.704Z,71.79
2023-02-21T18:40:54.644Z,71.84
2023-02-21T18:43:37.579Z,72.86
2023-02-21T18:46:23.826Z,72.36
2023-02-21T18:49:06.838Z,72.90
2023-02-21T18:51:49.771Z,72.68
2023-02-21T18:54:32.779Z,72.94
2023-02-21T18:57:17.643Z,72.76
2023-02-21T19:00:00.583Z,73.00
2023-02-21T19:02:43.380Z,73.07
2023-02-21T19:05:27.148Z,73.17
2023-02-21T19:08:10.019Z,72.91
2023-02-21T19:10:53.945Z,72.91
2023-02-21T19:13:38.197Z,72.88
2023-02-21T19:16:21.121Z,72.98
2023-02-21T19:19:04.187Z,72.93
2023-02-21T19:21:47.211Z,72.80
2023-02-21T19:24:30.206Z,72.84
2023-02-21T19:27:13.070Z,72.95
2023-02-21T19:29:57.801Z,72.99
2023-02-21T19:32:40.742Z,72.95
2023-02-21T19:35:23.589Z,72.91
2023-02-21T19:38:08.190Z,73.03
2023-02-21T19:40:51.037Z,73.14
2023-02-21T19:43:33.927Z,73.45
2023-02-21T19:46:23.232Z,73.55
2023-02-21T19:49:07.028Z,73.72
2023-02-21T19:51:51.868Z,73.61
2023-02-21T19:54:34.683Z,73.46
2023-02-21T19:57:17.596Z,73.46
2023-02-21T20:00:00.431Z,73.40
2023-02-21T20:02:46.313Z,73.48
2023-02-21T20:05:29.384Z,73.42
2023-02-21T20:08:12.332Z,73.42
2023-02-21T20:10:55.118Z,73.52
2023-02-21T20:13:38.956Z,73.56
2023-02-21T20:16:22.385Z,73.39
2023-02-21T20:19:08.353Z,73.38
2023-02-21T20:21:53.366Z,73.40
2023-02-21T20:24:36.179Z,73.43
2023-02-21T20:27:19.211Z,73.63
2023-02-21T20:30:02.239Z,73.82
2023-02-21T20:32:45.776Z,73.89
2023-02-21T20:35:30.588Z,74.41
2023-02-21T20:38:13.654Z,74.14
2023-02-21T20:40:56.443Z,74.07
2023-02-21T20:43:39.214Z,74.08
2023-02-21T20:46:23.055Z,74.11
2023-02-21T20:49:06.966Z,73.80
2023-02-21T20:51:51.159Z,74.68
2023-02-21T20:54:34.130Z,75.22
2023-02-21T20:57:17.056Z,76.04
2023-02-21T20:59:59.877Z,76.60
2023-02-21T21:02:43.212Z,76.28
2023-02-21T21:05:26.364Z,76.21
2023-02-21T21:08:10.815Z,76.01
2023-02-21T21:10:53.678Z,76.10
2023-02-21T21:13:37.091Z,75.93
2023-02-21T21:16:20.262Z,76.04
2023-02-21T21:19:03.561Z,75.95
2023-02-21T21:21:46.451Z,76.51
2023-02-21T21:24:31.995Z,76.06
2023-02-21T21:27:15.458Z,75.70
2023-02-21T21:29:58.405Z,76.05
2023-02-21T21:32:41.810Z,76.16
2023-02-21T21:35:29.870Z,76.11
2023-02-21T21:38:14.528Z,75.54
2023-02-21T21:41:00.094Z,75.41
2023-02-21T21:43:43.860Z,75.78
2023-02-21T21:46:26.666Z,75.79
2023-02-21T21:49:10.605Z,75.79
2023-02-21T21:51:55.574Z,75.96
2023-02-21T21:54:40.460Z,76.09
2023-02-21T21:57:27.115Z,75.74
2023-02-21T22:00:21.465Z,75.68
2023-02-21T22:03:04.678Z,75.22
2023-02-21T22:05:50.414Z,75.08
2023-02-21T22:08:33.536Z,75.19
2023-02-21T22:11:16.588Z,75.26
2023-02-21T22:14:01.181Z,75.08
2023-02-21T22:16:45.477Z,74.88
2023-02-21T22:19:29.356Z,74.82
2023-02-21T22:22:13.701Z,74.59
2023-02-21T22:24:56.463Z,74.68
2023-02-21T22:27:39.241Z,74.78
2023-02-21T22:30:23.957Z,74.95
2023-02-21T22:33:07.192Z,74.93
2023-02-21T22:35:50.397Z,74.79
2023-02-21T22:38:33.179Z,74.61
2023-02-21T22:41:17.826Z,74.84
2023-02-21T22:44:01.439Z,74.69
2023-02-21T22:46:47.258Z,74.61
2023-02-21T22:49:31.129Z,74.66
2023-02-21T22:52:14.048Z,74.70
2023-02-21T22:54:57.686Z,74.91
2023-02-21T22:57:40.544Z,74.60
2023-02-21T23:00:26.487Z,74.70
2023-02-21T23:03:13.760Z,74.72
2023-02-21T23:06:00.039Z,74.80
2023-02-21T23:08:48.680Z,74.96
2023-02-21T23:11:31.482Z,74.83
2023-02-21T23:14:15.195Z,74.92
2023-02-21T23:16:59.817Z,74.83
2023-02-21T23:19:44.036Z,74.76
2023-02-21T23:22:27.380Z,74.61
2023-02-21T23:25:19.996Z,74.72
2023-02-21T23:28:05.829Z,74.60
2023-02-21T23:30:49.680Z,74.50
2023-02-21T23:33:33.974Z,74.58
2023-02-21T23:36:22.503Z,74.56
2023-02-21T23:39:09.001Z,74.47
2023-02-21T23:41:53.581Z,74.61
2023-02-21T23:44:36.410Z,74.68
2023-02-21T23:47:19.656Z,74.84
2023-02-21T23:50:02.464Z,74.69
2023-02-21T23:52:48.381Z,74.95
2023-02-21T23:55:35.579Z,74.95
2023-02-21T23:58:20.396Z,75.03
